Weather reports worldwide

Advertisment
Mende, France (7554): temperature & dewpoint: 24.10.2020 19:00:00 - 30.10.2020 19:00:00 (CET)Mende, France (7554): temperature 5cm: 24.10.2020 19:00:00 - 30.10.2020 19:00:00 (CET)Mende, France (7554): temperature -20cm & temperature -100cm: 24.10.2020 19:00:00 - 30.10.2020 19:00:00 (CET)Mende, France (7554): wind speed & gusts: 24.10.2020 19:00:00 - 30.10.2020 19:00:00 (CET)Mende, France (7554): wind direction: 24.10.2020 19:00:00 - 30.10.2020 19:00:00 (CET)Mende, France (7554): visibility: 24.10.2020 19:00:00 - 30.10.2020 19:00:00 (CET)Mende, France (7554): sunshine duration: 24.10.2020 19:00:00 - 30.10.2020 19:00:00 (CET)Mende, France (7554): precipitation: 24.10.2020 19:00:00 - 30.10.2020 19:00:00 (CET)
Date & Time tt [°C] td [°C] tt 5cm [°C] tt -20cm [°C] tt -100cm [°C] ff [km/h] ff [kn] fx [km/h] fx [kn] dd vv [km] sd [min] rr [mm]
30.10.2020 19:00:00 - - - - - - - - - - - - -
30.10.2020 18:00:00 14,3 6,9 8,3 11,1 12,7 3 2 8 4 NNW 20 0 0,0
30.10.2020 17:00:00 18,3 7,1 16,3 11,0 12,7 5 3 13 7 WSW 20 45 0,0
30.10.2020 16:00:00 20,4 6,7 23,9 10,9 12,7 7 4 14 8 W 20 60 0,0
30.10.2020 15:00:00 20,5 6,8 24,9 10,8 12,7 8 4 16 9 WSW 20 60 0,0
30.10.2020 14:00:00 19,4 8,7 24,2 10,8 12,7 8 4 14 8 WSW 20 60 0,0
30.10.2020 13:00:00 18,0 8,0 23,2 10,8 12,7 6 3 9 5 WSW 20 60 0,0
30.10.2020 12:00:00 16,4 8,9 19,7 10,9 12,7 4 2 6 3 WSW 20 60 0,0
30.10.2020 11:00:00 13,7 8,5 15,4 10,9 12,7 0 0 11 6 N 20 60 0,0
30.10.2020 10:00:00 11,8 7,7 8,8 11,1 12,7 5 3 13 7 E 17 60 0,0
30.10.2020 09:00:00 7,0 4,6 4,4 11,1 12,7 7 4 16 9 ESE 20 60 0,0
30.10.2020 08:00:00 4,7 4,0 2,6 11,2 12,7 11 6 17 9 ESE 20 16 0,0
30.10.2020 07:00:00 4,4 4,0 1,2 11,3 12,7 4 2 14 8 ESE 15 0 0,0
30.10.2020 06:00:00 4,9 4,2 3,8 11,4 12,7 10 5 13 7 ESE 20 0 0,0
30.10.2020 05:00:00 4,7 4,1 3,6 11,4 12,7 10 5 16 8 ESE 20 0 0,0
30.10.2020 04:00:00 4,8 4,7 2,7 11,5 12,7 8 5 11 6 ESE 20 0 0,0
30.10.2020 03:00:00 4,4 4,1 2,5 11,5 12,7 3 2 9 5 ESE 20 0 0,0
30.10.2020 02:00:00 4,7 4,6 3,3 11,5 12,7 8 4 11 6 ESE 0,1 0 0,0
30.10.2020 01:00:00 5,5 5,2 2,1 11,5 12,7 0 0 6 3 N 0,4 0 0,0
30.10.2020 00:00:00 5,7 5,4 2,6 11,5 12,7 0 0 12 6 N 1,3 0 0,0
29.10.2020 23:00:00 6,5 6,2 2,8 11,5 12,7 5 3 9 5 SE 1,7 0 0,0
29.10.2020 22:00:00 7,0 6,4 3,3 11,5 12,7 0 0 17 9 N 20 0 0,0
29.10.2020 21:00:00 7,7 6,8 5,1 11,4 12,7 6 4 13 7 WNW 20 0 0,0
29.10.2020 20:00:00 7,5 6,4 5,4 11,3 12,7 6 3 15 8 WNW 20 0 0,0
29.10.2020 19:00:00 8,9 6,9 7,3 11,3 12,7 9 5 14 8 NNW 20 0 0,0
29.10.2020 18:00:00 10,4 7,8 9,3 11,2 12,7 9 5 17 9 W 20 12 0,0
29.10.2020 17:00:00 11,9 7,8 12,2 11,1 12,7 11 6 23 13 WNW 20 25 0,0
29.10.2020 16:00:00 12,2 7,7 13,4 11,1 12,8 13 7 28 15 NNW 20 15 0,0
29.10.2020 15:00:00 12,3 8,2 13,6 11,1 12,8 11 6 23 12 NW 20 7 0,0
29.10.2020 14:00:00 13,3 9,0 13,1 11,1 12,8 12 6 21 11 W 20 41 0,0
29.10.2020 13:00:00 10,5 9,6 10,1 11,1 12,8 11 6 21 11 WSW 16 3 0,0
29.10.2020 12:00:00 9,0 7,9 9,5 11,1 12,8 13 7 23 12 WSW 11 0 0,0
29.10.2020 11:00:00 8,8 8,3 8,9 11,2 12,7 8 4 21 11 WSW 20 0 0,0
29.10.2020 10:00:00 8,6 8,3 9,0 11,2 12,8 8 5 19 11 W 20 0 0,0
29.10.2020 09:00:00 8,0 7,9 7,5 11,3 12,8 4 2 16 9 W 19 0 0,0
29.10.2020 08:00:00 7,3 7,2 7,0 11,2 12,7 4 2 9 5 S 15 0 0,0
29.10.2020 07:00:00 7,1 7,0 6,5 11,3 12,8 2 1 13 7 WSW 0,7 0 0,0
29.10.2020 06:00:00 7,1 7,0 6,6 11,3 12,8 8 4 21 11 W 0,5 0 0,0
29.10.2020 05:00:00 7,4 7,3 7,1 11,3 12,7 7 4 15 8 WSW 0,6 0 0,0
29.10.2020 04:00:00 7,1 6,8 6,4 11,4 12,8 7 4 11 6 W 1,5 0 0,0
29.10.2020 03:00:00 7,0 6,6 6,5 11,4 12,7 8 5 17 9 W 13 0 0,0
29.10.2020 02:00:00 7,1 6,8 6,4 11,4 12,8 11 6 21 11 WNW 6 0 0,0
29.10.2020 01:00:00 7,0 6,4 6,4 11,4 12,8 6 4 22 12 WSW 20 0 0,0
29.10.2020 00:00:00 6,9 6,3 5,4 11,4 12,7 11 6 23 12 W 20 0 0,0
28.10.2020 23:00:00 7,1 6,5 6,3 11,3 12,8 10 6 23 12 WNW 20 0 0,0
28.10.2020 22:00:00 8,2 7,9 8,0 11,3 12,8 9 5 14 8 W 0,3 0 0,6
28.10.2020 21:00:00 8,3 8,0 8,0 11,3 12,8 6 3 9 5 W 0,6 0 0,0
28.10.2020 20:00:00 8,2 7,8 8,0 11,2 12,8 7 4 18 10 WSW 20 0 0,0
28.10.2020 19:00:00 8,9 8,6 8,7 11,1 12,8 9 5 18 10 W 0,8 0 0,2
28.10.2020 18:00:00 9,2 8,7 9,0 11,1 12,8 8 5 22 12 WSW 12 0 0,0
28.10.2020 17:00:00 9,8 9,0 9,6 11,0 12,8 11 6 22 12 WSW 18 0 0,0
28.10.2020 16:00:00 10,6 9,4 10,8 11,0 12,8 10 5 24 13 WSW 20 5 0,0
28.10.2020 15:00:00 10,5 9,6 10,6 11,0 12,8 11 6 23 12 SW 14 0 0,0
28.10.2020 14:00:00 11,0 9,7 11,5 11,0 12,8 10 5 19 10 SW 16 4 0,0
28.10.2020 13:00:00 11,4 10,8 11,0 10,9 12,8 10 5 21 11 WSW 20 8 0,4
28.10.2020 12:00:00 10,6 10,0 11,0 10,9 12,8 7 4 13 7 WSW 7 0 0,8
28.10.2020 11:00:00 10,3 9,7 10,2 11,0 12,8 2 1 5 3 NW 20 0 0,0
28.10.2020 10:00:00 9,1 8,8 8,9 11,0 12,8 2 1 8 4 ESE 20 6 0,0
28.10.2020 09:00:00 8,0 7,9 7,7 11,0 12,8 3 1 9 5 NE 4,1 0 0,2
28.10.2020 08:00:00 7,5 7,4 7,3 11,0 12,8 4 2 8 4 ENE 2,5 0 0,8
28.10.2020 07:00:00 7,3 7,2 7,2 11,0 12,8 3 2 6 3 E 0,4 0 0,0
28.10.2020 06:00:00 7,2 7,1 7,2 11,0 12,8 3 2 6 3 SSE 0,2 0 0,0
28.10.2020 05:00:00 7,2 6,9 7,1 11,0 12,9 0 0 4 2 N 0,9 0 0,0
28.10.2020 04:00:00 7,2 6,8 7,0 11,0 12,8 0 0 4 2 N 3,9 0 0,0
28.10.2020 03:00:00 7,2 6,6 7,0 11,0 12,9 0 0 3 2 N 20 0 0,0
28.10.2020 02:00:00 7,2 6,6 6,9 11,0 12,8 3 2 7 4 WNW 20 0 0,2
28.10.2020 01:00:00 7,1 6,2 7,1 11,0 12,8 0 0 3 2 N 17 0 0,0
28.10.2020 00:00:00 7,1 6,2 7,1 11,0 12,9 2 1 6 4 W 20 0 0,0
27.10.2020 23:00:00 7,0 6,3 6,9 11,0 12,9 0 0 6 3 N 20 0 0,0
27.10.2020 22:00:00 6,8 6,2 6,6 10,9 12,8 0 0 7 4 N 20 0 0,0
27.10.2020 21:00:00 6,8 6,2 6,0 10,9 12,8 4 2 11 6 W 20 0 0,0
27.10.2020 20:00:00 6,9 6,2 6,7 10,9 12,9 2 1 8 5 WNW 20 0 0,0
27.10.2020 19:00:00 7,1 6,0 6,8 10,8 12,9 5 3 11 6 WSW 19 0 0,0
27.10.2020 18:00:00 7,1 5,6 7,1 10,7 12,9 6 3 19 10 WSW 20 0 0,0
27.10.2020 17:00:00 7,8 5,4 8,0 10,7 12,8 10 5 22 12 WSW 20 17 0,0
27.10.2020 16:00:00 9,1 5,6 10,5 10,7 12,9 10 5 21 12 WSW 20 8 0,0
27.10.2020 15:00:00 9,7 4,9 10,7 10,7 12,9 11 6 26 14 SW 20 37 0,0
27.10.2020 14:00:00 9,4 5,6 10,0 10,7 12,9 10 5 22 12 WSW 20 1 0,0
27.10.2020 13:00:00 8,4 5,0 8,4 10,7 12,9 11 6 20 11 SW 20 4 0,0
27.10.2020 12:00:00 7,5 5,0 7,5 10,8 12,9 7 4 19 10 WSW 20 4 0,0
27.10.2020 11:00:00 6,4 4,6 7,2 10,8 12,9 7 4 17 9 WSW 20 3 0,0
27.10.2020 10:00:00 5,6 4,2 6,7 10,9 12,9 6 4 16 9 WSW 18 22 0,0
27.10.2020 09:00:00 4,5 4,1 4,0 10,9 12,9 4 2 8 4 WSW 20 2 0,0
27.10.2020 08:00:00 3,7 3,4 2,0 11,0 12,9 3 1 12 7 WNW 20 6 0,0
27.10.2020 07:00:00 3,6 3,3 2,9 11,0 12,9 3 2 13 7 SW 0,5 0 0,0
27.10.2020 06:00:00 4,0 3,7 3,3 11,1 12,9 6 3 15 8 WSW 0,4 0 0,0
27.10.2020 05:00:00 3,9 3,5 2,4 11,2 12,9 6 4 13 7 W 20 0 0,0
27.10.2020 04:00:00 3,5 2,5 2,3 11,3 12,9 6 4 15 8 WSW 18 0 0,0
27.10.2020 03:00:00 3,6 2,1 2,4 11,3 12,9 6 3 18 10 W 20 0 0,0
27.10.2020 02:00:00 3,8 2,2 2,9 11,4 12,9 14 8 29 16 WNW 20 0 0,0
27.10.2020 01:00:00 3,9 2,4 3,1 11,4 12,9 16 9 27 15 WNW 20 0 0,0
27.10.2020 00:00:00 4,1 2,9 3,7 11,5 12,9 9 5 15 8 W 20 0 0,0
26.10.2020 23:00:00 4,7 2,4 4,4 11,5 12,9 13 7 25 14 NW 20 0 0,0
26.10.2020 22:00:00 4,7 2,6 3,8 11,5 12,9 16 9 33 18 WNW 20 0 0,0
26.10.2020 21:00:00 3,9 2,3 2,6 11,5 12,9 15 8 35 19 W 20 0 0,0
26.10.2020 20:00:00 3,6 1,8 2,3 11,5 12,9 17 9 35 19 WNW 20 0 0,0
26.10.2020 19:00:00 4,8 3,0 3,3 11,4 12,9 14 8 26 14 W 20 0 0,0
26.10.2020 18:00:00 5,0 2,4 3,8 11,4 12,9 14 7 36 20 WNW 20 6 0,0
26.10.2020 17:00:00 6,3 3,1 5,4 11,4 12,9 20 11 38 21 WNW 20 3 0,0
26.10.2020 16:00:00 7,5 3,0 7,8 11,3 12,9 18 10 35 19 WNW 20 4 0,0
26.10.2020 15:00:00 8,1 3,7 8,1 11,4 12,9 15 8 36 20 NW 20 10 0,0
26.10.2020 14:00:00 8,3 3,1 8,5 11,4 12,9 22 12 48 26 NW 20 42 0,0
26.10.2020 13:00:00 8,4 3,8 8,4 11,4 12,9 24 13 43 23 NNW 20 25 0,0
26.10.2020 12:00:00 7,2 3,1 8,5 11,5 12,9 16 9 36 19 NW 20 8 0,0
26.10.2020 11:00:00 7,1 4,4 6,9 11,5 12,9 17 9 34 18 WNW 20 16 0,0
26.10.2020 10:00:00 5,9 5,5 6,7 11,6 12,9 5 3 11 6 W 20 8 0,0
26.10.2020 09:00:00 5,3 5,2 4,4 11,7 12,9 3 1 10 6 SSW 20 14 0,2
26.10.2020 08:00:00 4,1 3,8 4,0 11,7 13,0 3 2 6 3 WSW 1,1 0 0,0
26.10.2020 07:00:00 3,9 3,6 3,8 11,8 12,9 3 2 8 4 NW 1,1 0 0,0
26.10.2020 06:00:00 3,8 3,5 3,2 11,8 12,9 5 3 9 5 WNW 0,3 0 0,0
26.10.2020 05:00:00 3,8 3,2 3,4 11,8 12,9 6 3 14 7 SSW 20 0 0,0
26.10.2020 04:00:00 4,2 3,6 4,0 11,9 12,9 5 3 9 5 SW 8 0 0,6
26.10.2020 03:00:00 4,3 3,6 3,9 11,9 12,9 4 2 14 8 SW 20 0 1,6
26.10.2020 02:00:00 4,5 3,5 4,1 11,9 13,0 5 3 40 22 WSW 8 0 0,6
26.10.2020 01:00:00 6,0 5,1 5,7 11,8 12,9 18 10 39 21 WNW 7 0 0,6
26.10.2020 00:00:00 7,1 5,4 6,4 11,8 12,9 25 13 40 22 NNW 9 0 0,8
25.10.2020 23:00:00 9,8 7,9 9,2 11,8 12,9 10 6 37 20 SSW 18 0 0,0
25.10.2020 22:00:00 10,2 7,4 9,9 11,8 12,9 7 4 14 8 SSE 20 0 0,0
25.10.2020 21:00:00 10,4 7,6 10,0 11,7 12,9 4 2 21 11 ESE 20 0 0,0
25.10.2020 20:00:00 10,6 7,7 9,8 11,6 12,9 11 6 23 12 E 20 0 0,0
25.10.2020 19:00:00 10,3 8,1 9,8 11,5 12,9 6 3 18 10 E 20 0 0,0
25.10.2020 18:00:00 11,0 7,9 10,7 11,5 12,9 8 5 25 14 ESE 20 0 0,0
25.10.2020 17:00:00 12,0 7,9 11,9 11,4 12,9 9 5 19 10 SE 20 0 0,0
25.10.2020 16:00:00 13,6 8,4 14,1 11,3 12,9 7 4 22 12 SSE 20 14 0,0
25.10.2020 15:00:00 14,0 7,7 15,1 11,3 12,9 8 4 23 12 SSW 20 13 0,0
25.10.2020 14:00:00 14,4 7,9 16,4 11,3 12,9 12 7 22 12 S 20 47 0,0
25.10.2020 13:00:00 14,3 7,6 16,8 11,3 12,9 10 6 23 13 SSE 20 42 0,0
25.10.2020 12:00:00 14,5 8,4 17,0 11,4 12,9 7 4 14 8 SSE 20 60 0,0
25.10.2020 11:00:00 12,5 7,6 14,3 11,5 12,9 6 4 24 13 SE 20 58 0,0
25.10.2020 10:00:00 10,8 6,7 9,9 11,6 12,9 11 6 23 13 E 20 60 0,0
25.10.2020 09:00:00 7,8 5,3 5,4 11,7 12,8 10 5 24 13 ENE 20 24 0,0
25.10.2020 08:00:00 5,9 3,7 2,0 11,8 12,9 11 6 24 13 E 20 7 0,0
25.10.2020 07:00:00 3,7 2,5 2,5 11,9 12,9 8 5 18 10 ESE 20 0 0,0
25.10.2020 06:00:00 3,7 3,0 2,1 12,0 12,9 10 5 17 9 E 20 0 0,0
25.10.2020 05:00:00 3,4 3,0 2,3 12,0 12,9 6 3 16 9 E 20 0 0,0
25.10.2020 04:00:00 4,2 3,6 2,7 12,2 12,9 10 5 14 7 ESE 20 0 0,0
25.10.2020 03:00:00 3,9 3,5 3,0 12,2 12,9 11 6 15 8 ESE 20 0 0,0
25.10.2020 02:00:00 4,2 3,9 3,4 12,2 12,9 11 6 15 8 ESE 20 0 0,0
25.10.2020 01:00:00 - - - - - - - - - - - - -
25.10.2020 00:00:00 4,8 4,4 3,0 12,3 12,9 8 4 13 7 E 2,0 0 0,0
24.10.2020 23:00:00 5,3 4,9 2,9 12,3 12,9 2 1 14 8 ESE 20 0 0,0
24.10.2020 22:00:00 5,6 5,2 4,6 12,3 12,9 10 5 13 7 ESE 0,4 0 0,0
24.10.2020 21:00:00 6,2 5,5 4,6 12,2 12,9 7 4 10 5 ENE 20 0 0,0
24.10.2020 20:00:00 7,3 6,2 5,1 12,1 12,9 6 3 9 5 E 20 0 0,0
24.10.2020 19:00:00 7,4 6,3 3,8 12,0 12,8 5 3 8 4 ENE 16 0 0,0

tt = temperature
td = dewpoint
tt 5cm = temperature 5cm
tt -20cm = temperature -20cm
tt -100cm = temperature -100cm
ff = wind speed
fx = gusts
dd = wind direction
vv = visibility
sd = sunshine duration
rr = precipitation

Next stations